Time;durP1;ratioP1;P1;durP2;ratioP2;P2;SDS_P1;SDS_P2;PMS_P1;PMS_P2;Temp;Humidity;BMP_temperature;BMP_pressure;BME280_temperature;BME280_humidity;BME280_pressure;Samples;Min_cycle;Max_cycle;Signal;HPM_P1;HPM_P2
2024/03/16 00:00:56;;;;;;;23.55;4.35;;;14.40;98.80;;;;;;5058990;28;20020;-83
2024/03/16 00:03:22;;;;;;;19.10;4.43;;;14.40;98.90;;;;;;5051047;28;20044;-83
2024/03/16 00:05:47;;;;;;;22.58;4.72;;;14.40;99.00;;;;;;5078396;28;20036;-83
2024/03/16 00:08:13;;;;;;;14.32;4.07;;;14.40;99.00;;;;;;5071137;28;20067;-83
2024/03/16 00:10:39;;;;;;;24.65;4.47;;;14.40;99.00;;;;;;5069693;28;20471;-83
2024/03/16 00:13:06;;;;;;;23.70;4.45;;;14.40;99.00;;;;;;5058826;28;20039;-83
2024/03/16 00:15:32;;;;;;;10.77;3.45;;;14.40;99.00;;;;;;5070305;28;20396;-83
2024/03/16 00:17:58;;;;;;;13.52;3.90;;;14.40;99.10;;;;;;5066867;28;20036;-83
2024/03/16 00:20:30;;;;;;;18.40;4.85;;;14.40;99.10;;;;;;5058545;28;20025;-82
2024/03/16 00:22:56;;;;;;;26.97;6.00;;;14.40;99.10;;;;;;5053039;28;20112;-83
2024/03/16 00:25:22;;;;;;;21.88;4.97;;;14.40;99.10;;;;;;5062913;28;20370;-82
2024/03/16 00:27:52;;;;;;;17.42;4.70;;;14.40;99.10;;;;;;5068107;28;20027;-83
2024/03/16 00:30:19;;;;;;;27.40;6.55;;;14.40;99.20;;;;;;5068850;28;20060;-82
2024/03/16 00:32:47;;;;;;;22.63;5.28;;;14.30;99.20;;;;;;5063319;28;20036;-83
2024/03/16 00:35:13;;;;;;;23.45;4.65;;;14.30;99.20;;;;;;5063453;28;20049;-83
2024/03/16 00:37:38;;;;;;;22.50;4.47;;;14.30;99.30;;;;;;5054933;28;20028;-83
2024/03/16 00:40:07;;;;;;;18.23;3.85;;;14.30;99.40;;;;;;5062978;28;20036;-83
2024/03/16 00:42:32;;;;;;;14.45;3.55;;;14.30;99.40;;;;;;5059434;28;20374;-83
2024/03/16 00:44:58;;;;;;;21.00;4.82;;;14.30;99.40;;;;;;5049945;28;20028;-83
2024/03/16 00:47:24;;;;;;;21.83;5.90;;;14.30;99.40;;;;;;5057388;28;20025;-83
2024/03/16 00:49:49;;;;;;;21.48;5.13;;;14.30;99.40;;;;;;5066592;28;20028;-83
2024/03/16 00:52:15;;;;;;;19.55;4.97;;;14.30;99.50;;;;;;5059703;28;20032;-83
2024/03/16 00:54:41;;;;;;;15.50;3.55;;;14.30;99.60;;;;;;5066109;28;20017;-83
2024/03/16 00:57:07;;;;;;;17.10;4.20;;;14.30;99.50;;;;;;5052224;28;20029;-83
2024/03/16 00:59:32;;;;;;;13.48;3.50;;;14.30;99.60;;;;;;5053851;28;20048;-83
2024/03/16 01:01:58;;;;;;;18.60;3.55;;;14.30;99.60;;;;;;5053041;28;20477;-83
2024/03/16 01:04:27;;;;;;;14.95;4.10;;;14.30;99.70;;;;;;5061589;28;20520;-83
2024/03/16 01:06:53;;;;;;;14.93;3.05;;;14.30;99.70;;;;;;5057063;28;20102;-83
2024/03/16 01:09:18;;;;;;;15.35;3.08;;;14.30;99.80;;;;;;5056125;28;20548;-83
2024/03/16 01:11:44;;;;;;;17.90;4.40;;;14.30;99.80;;;;;;5051927;28;20036;-83
2024/03/16 01:14:10;;;;;;;15.10;3.45;;;14.30;99.90;;;;;;5059195;28;20457;-83
2024/03/16 01:16:35;;;;;;;6.90;2.25;;;14.20;99.90;;;;;;5055133;28;20032;-83
2024/03/16 01:19:01;;;;;;;13.48;2.63;;;14.20;99.90;;;;;;5053988;28;20056;-83
2024/03/16 01:21:27;;;;;;;7.80;2.67;;;14.20;99.90;;;;;;5061373;28;20354;-82
2024/03/16 01:23:52;;;;;;;20.42;5.68;;;14.20;99.90;;;;;;5055831;28;20582;-82
2024/03/16 01:26:19;;;;;;;18.33;5.05;;;14.20;99.90;;;;;;5068432;28;20773;-83
2024/03/16 01:28:45;;;;;;;20.08;4.88;;;14.20;99.80;;;;;;5056218;28;20032;-82
2024/03/16 01:31:11;;;;;;;12.02;4.07;;;14.20;99.80;;;;;;5052823;28;20173;-82
2024/03/16 01:33:39;;;;;;;20.38;4.25;;;14.10;99.80;;;;;;5067271;28;20154;-82
2024/03/16 01:36:05;;;;;;;15.23;3.38;;;14.10;99.90;;;;;;5054706;28;20132;-83
2024/03/16 01:38:31;;;;;;;11.80;3.10;;;14.10;99.90;;;;;;5051063;28;20059;-84
2024/03/16 01:40:57;;;;;;;12.27;2.60;;;14.10;99.90;;;;;;5052117;28;20021;-83
2024/03/16 01:43:22;;;;;;;16.08;3.97;;;14.10;99.80;;;;;;5054360;28;20136;-83
2024/03/16 01:45:48;;;;;;;23.63;4.18;;;14.10;99.50;;;;;;5047117;28;20029;-82
2024/03/16 01:48:14;;;;;;;13.98;2.78;;;14.10;99.50;;;;;;5049482;28;20037;-83
2024/03/16 01:50:41;;;;;;;8.13;2.38;;;14.10;99.40;;;;;;5065095;28;20024;-83
2024/03/16 01:53:11;;;;;;;8.02;3.05;;;14.00;99.20;;;;;;5060717;28;20033;-83
2024/03/16 01:55:38;;;;;;;6.68;1.45;;;14.10;99.10;;;;;;5057489;28;20036;-83
2024/03/16 01:58:07;;;;;;;2.03;1.10;;;14.10;99.00;;;;;;5063195;28;20127;-82
2024/03/16 02:00:35;;;;;;;3.75;1.15;;;14.00;98.80;;;;;;5054783;28;20040;-82
2024/03/16 02:03:02;;;;;;;6.03;0.98;;;14.00;98.50;;;;;;5062859;28;20021;-82
2024/03/16 02:05:29;;;;;;;0.95;0.50;;;14.00;98.30;;;;;;5059139;28;20041;-82
2024/03/16 02:07:54;;;;;;;1.85;0.85;;;13.90;98.00;;;;;;5047660;28;20029;-83
2024/03/16 02:10:21;;;;;;;3.95;0.68;;;13.80;98.20;;;;;;5055121;28;20361;-82
2024/03/16 02:12:47;;;;;;;2.83;0.90;;;13.80;98.10;;;;;;5063183;28;20827;-83
2024/03/16 02:15:13;;;;;;;1.40;0.77;;;13.80;98.00;;;;;;5055818;28;20035;-82
2024/03/16 02:17:40;;;;;;;2.75;0.80;;;13.80;98.00;;;;;;5058725;28;20423;-83
2024/03/16 02:20:14;;;;;;;0.55;0.55;;;13.70;98.00;;;;;;5068864;28;20056;-82
2024/03/16 02:22:40;;;;;;;5.82;1.40;;;13.70;97.90;;;;;;5083169;28;20090;-81
2024/03/16 02:25:07;;;;;;;4.15;0.95;;;13.70;97.90;;;;;;5085022;28;20000;-82
2024/03/16 02:27:32;;;;;;;3.35;1.33;;;13.60;98.10;;;;;;5071410;28;20036;-83
2024/03/16 02:29:58;;;;;;;1.33;0.70;;;13.60;98.00;;;;;;5062506;28;20036;-83
2024/03/16 02:32:24;;;;;;;8.60;1.50;;;13.60;97.90;;;;;;5055773;28;20043;-83
2024/03/16 02:34:50;;;;;;;7.40;1.27;;;13.50;97.80;;;;;;5055114;28;20041;-83
2024/03/16 02:37:16;;;;;;;1.20;0.70;;;13.50;97.70;;;;;;5064493;28;20047;-82
2024/03/16 02:39:42;;;;;;;1.77;0.85;;;13.50;97.70;;;;;;5055263;28;20041;-83
2024/03/16 02:42:08;;;;;;;1.88;0.75;;;13.50;97.60;;;;;;5066670;28;20032;-82
2024/03/16 02:44:34;;;;;;;1.02;0.80;;;13.40;97.70;;;;;;5058412;28;20033;-83
2024/03/16 02:47:00;;;;;;;1.92;1.27;;;13.40;97.80;;;;;;5047776;28;20021;-82
2024/03/16 02:49:26;;;;;;;7.43;1.10;;;13.30;97.70;;;;;;5066022;28;20071;-82
2024/03/16 02:51:53;;;;;;;5.32;0.75;;;13.30;97.70;;;;;;5067507;28;20039;-82
2024/03/16 02:54:18;;;;;;;2.80;1.20;;;13.30;97.80;;;;;;5047764;28;20106;-82
2024/03/16 02:56:47;;;;;;;2.60;1.33;;;13.30;97.70;;;;;;5047839;28;20423;-82
2024/03/16 02:59:13;;;;;;;3.90;1.15;;;13.30;97.80;;;;;;5050912;28;20047;-82
2024/03/16 03:01:39;;;;;;;3.67;1.10;;;13.30;97.50;;;;;;5052941;28;20024;-82
2024/03/16 03:04:07;;;;;;;8.68;1.05;;;13.30;97.50;;;;;;5063650;28;20033;-82
2024/03/16 03:06:33;;;;;;;6.45;1.92;;;13.30;97.50;;;;;;5051718;28;20068;-82
2024/03/16 03:08:59;;;;;;;6.07;1.15;;;13.30;97.40;;;;;;5053864;28;20396;-82
2024/03/16 03:11:25;;;;;;;10.52;1.15;;;13.20;97.40;;;;;;5070650;28;20068;-82
2024/03/16 03:13:52;;;;;;;5.20;1.25;;;13.20;97.50;;;;;;5056868;28;20043;-82
2024/03/16 03:16:21;;;;;;;5.47;1.17;;;13.30;97.50;;;;;;5055253;28;20044;-82
2024/03/16 03:18:47;;;;;;;6.93;1.02;;;13.20;97.40;;;;;;5056149;28;20123;-82
2024/03/16 03:21:13;;;;;;;4.63;1.30;;;13.30;97.40;;;;;;5062576;28;20103;-83
2024/03/16 03:23:39;;;;;;;1.85;0.88;;;13.30;97.30;;;;;;5065843;28;20074;-83
2024/03/16 03:26:05;;;;;;;3.15;1.15;;;13.30;97.10;;;;;;5061627;28;20028;-83
2024/03/16 03:28:31;;;;;;;9.65;1.88;;;13.30;97.00;;;;;;5063998;28;20180;-82
2024/03/16 03:30:56;;;;;;;6.07;1.27;;;13.30;96.90;;;;;;5054033;28;20465;-83
2024/03/16 03:33:22;;;;;;;9.63;1.83;;;13.30;97.00;;;;;;5054072;28;20048;-83
2024/03/16 03:35:48;;;;;;;13.13;2.75;;;13.30;97.10;;;;;;5069762;28;20048;-83
2024/03/16 03:38:13;;;;;;;11.60;1.65;;;13.30;97.00;;;;;;5059883;28;20073;-82
2024/03/16 03:40:42;;;;;;;17.25;2.47;;;13.30;97.10;;;;;;5063887;28;20020;-82
2024/03/16 03:43:17;;;;;;;13.05;2.75;;;13.20;97.10;;;;;;5051670;28;20037;-83
2024/03/16 03:50:57;;;;;;;12.73;1.90;;;13.10;96.80;;;;;;5063271;28;20055;-83
2024/03/16 03:53:27;;;;;;;21.57;3.73;;;13.10;96.80;;;;;;5054275;28;20126;-83
2024/03/16 03:55:52;;;;;;;18.98;2.85;;;13.10;96.90;;;;;;5052919;28;20366;-82
2024/03/16 03:58:19;;;;;;;21.30;2.85;;;13.00;97.00;;;;;;5062296;28;20155;-83
2024/03/16 04:00:46;;;;;;;11.50;1.58;;;13.00;97.00;;;;;;5058236;28;20039;-81
2024/03/16 04:03:12;;;;;;;11.30;2.05;;;13.00;97.00;;;;;;5058762;28;20032;-82
2024/03/16 04:05:38;;;;;;;7.15;1.67;;;12.90;96.80;;;;;;5055558;28;20032;-82
2024/03/16 04:08:07;;;;;;;5.22;1.60;;;12.90;96.90;;;;;;5057415;28;20111;-82
2024/03/16 04:10:34;;;;;;;8.60;1.45;;;12.90;97.10;;;;;;5050497;28;20120;-83
2024/03/16 04:13:00;;;;;;;15.55;2.20;;;12.90;97.10;;;;;;5052425;28;20091;-83
2024/03/16 04:15:26;;;;;;;19.00;2.67;;;13.00;97.10;;;;;;5061873;28;20036;-83
2024/03/16 04:17:52;;;;;;;13.82;2.90;;;13.10;97.10;;;;;;5054601;28;20034;-82
2024/03/16 04:20:18;;;;;;;15.18;3.00;;;13.10;96.90;;;;;;5064940;28;20033;-82
2024/03/16 04:22:44;;;;;;;16.85;2.00;;;13.10;96.90;;;;;;5060437;28;20029;-83
2024/03/16 04:25:13;;;;;;;8.27;1.70;;;13.20;96.80;;;;;;5052232;28;20086;-83
2024/03/16 04:27:40;;;;;;;19.40;3.83;;;13.20;96.60;;;;;;5070645;28;20046;-83
2024/03/16 04:30:10;;;;;;;6.88;1.83;;;13.10;96.80;;;;;;5049896;28;20032;-82
2024/03/16 04:32:36;;;;;;;10.52;2.08;;;13.00;96.10;;;;;;5063074;28;20040;-82
2024/03/16 04:35:02;;;;;;;7.57;1.33;;;13.00;96.10;;;;;;5063359;28;20048;-83
2024/03/16 04:37:28;;;;;;;11.70;2.35;;;12.90;96.40;;;;;;5049792;28;20037;-83
2024/03/16 04:39:55;;;;;;;14.38;2.67;;;12.80;96.20;;;;;;5060218;28;20048;-83
2024/03/16 04:42:22;;;;;;;5.63;1.08;;;12.80;96.70;;;;;;5049349;28;20041;-82
2024/03/16 04:44:47;;;;;;;13.85;1.73;;;12.80;96.50;;;;;;5070100;28;20033;-82
2024/03/16 04:47:13;;;;;;;4.00;0.63;;;12.80;96.10;;;;;;5091664;28;20034;-83
2024/03/16 04:49:40;;;;;;;7.00;1.25;;;12.70;96.60;;;;;;5070823;28;20025;-83
2024/03/16 04:52:07;;;;;;;13.85;3.13;;;12.80;96.00;;;;;;5062023;28;20024;-83
2024/03/16 04:54:33;;;;;;;6.60;1.65;;;12.80;96.10;;;;;;5064978;28;20081;-83
2024/03/16 04:56:58;;;;;;;12.70;1.70;;;12.80;96.20;;;;;;5060406;28;20056;-82
2024/03/16 04:59:24;;;;;;;11.30;1.92;;;12.80;96.30;;;;;;5064306;28;20507;-82
2024/03/16 05:01:50;;;;;;;9.00;1.45;;;12.80;96.20;;;;;;5058969;28;20478;-83
2024/03/16 05:04:15;;;;;;;11.27;2.63;;;12.80;95.90;;;;;;5064442;28;20040;-83
2024/03/16 05:06:41;;;;;;;11.10;1.73;;;12.70;95.80;;;;;;5052037;28;20028;-83
2024/03/16 05:09:10;;;;;;;7.50;1.90;;;12.70;96.10;;;;;;5057118;28;20038;-83
2024/03/16 05:11:37;;;;;;;6.82;1.85;;;12.70;95.80;;;;;;5053801;28;20017;-83
2024/03/16 05:14:06;;;;;;;12.23;2.55;;;12.70;95.80;;;;;;5051138;28;20071;-83
2024/03/16 05:16:35;;;;;;;10.75;1.98;;;12.70;95.90;;;;;;5058810;28;20112;-83
2024/03/16 05:19:04;;;;;;;7.65;3.17;;;12.70;96.00;;;;;;5067700;28;20036;-83
2024/03/16 05:21:31;;;;;;;8.73;1.50;;;12.70;95.60;;;;;;5067266;28;20032;-83
2024/03/16 05:23:57;;;;;;;12.80;2.25;;;12.70;95.40;;;;;;5061247;28;20448;-83
2024/03/16 05:26:23;;;;;;;7.97;2.15;;;12.60;95.00;;;;;;5056362;28;20037;-83
2024/03/16 05:28:49;;;;;;;10.27;2.45;;;12.60;95.10;;;;;;5062171;28;20100;-83
2024/03/16 05:31:15;;;;;;;8.30;1.67;;;12.60;94.90;;;;;;5064174;28;20033;-83
2024/03/16 05:33:41;;;;;;;9.35;1.83;;;12.50;94.70;;;;;;5052419;28;20399;-83
2024/03/16 05:36:09;;;;;;;6.07;1.30;;;12.50;94.40;;;;;;5061963;28;20060;-81
2024/03/16 05:38:37;;;;;;;7.70;1.80;;;12.50;94.60;;;;;;5063014;28;20032;-82
2024/03/16 05:41:05;;;;;;;11.00;1.70;;;12.50;94.70;;;;;;5052113;28;20041;-81
2024/03/16 05:43:31;;;;;;;9.50;1.88;;;12.50;94.90;;;;;;5049021;28;20032;-83
2024/03/16 05:45:56;;;;;;;6.60;1.13;;;12.50;95.10;;;;;;5059100;28;20017;-81
2024/03/16 05:48:22;;;;;;;9.85;1.98;;;12.50;95.20;;;;;;5050521;28;20512;-79
2024/03/16 05:50:53;;;;;;;16.13;2.30;;;12.50;95.30;;;;;;5051851;28;20037;-81
2024/03/16 05:53:20;;;;;;;9.45;2.30;;;12.40;95.10;;;;;;5053388;28;20170;-81
2024/03/16 05:55:49;;;;;;;4.20;1.45;;;12.40;95.20;;;;;;5048468;28;20465;-81
2024/03/16 05:58:16;;;;;;;16.98;2.25;;;12.30;95.20;;;;;;5056887;28;20056;-83
2024/03/16 06:00:41;;;;;;;9.13;1.55;;;12.30;95.30;;;;;;5053196;28;20035;-82
2024/03/16 06:03:07;;;;;;;6.78;1.38;;;12.30;95.70;;;;;;5058879;28;20264;-83
2024/03/16 06:05:35;;;;;;;9.05;2.00;;;12.40;95.40;;;;;;5049544;28;20044;-84
2024/03/16 06:08:01;;;;;;;7.45;1.48;;;12.30;95.60;;;;;;5063238;28;20039;-84
2024/03/16 06:10:27;;;;;;;6.43;1.85;;;12.30;95.30;;;;;;5057658;28;20116;-85
2024/03/16 06:12:53;;;;;;;8.43;2.08;;;12.30;95.40;;;;;;5063833;28;20182;-83
2024/03/16 06:15:19;;;;;;;12.40;2.65;;;12.30;95.30;;;;;;5059239;28;20623;-84
2024/03/16 06:17:44;;;;;;;9.75;1.63;;;12.30;95.30;;;;;;5068074;28;20032;-84
2024/03/16 06:20:13;;;;;;;9.38;1.60;;;12.30;95.30;;;;;;5053915;28;20048;-81
2024/03/16 06:22:41;;;;;;;10.80;1.50;;;12.30;95.10;;;;;;5056203;28;20039;-81
2024/03/16 06:25:10;;;;;;;9.10;1.45;;;12.40;95.10;;;;;;5057686;28;20447;-83
2024/03/16 06:27:43;;;;;;;15.05;1.83;;;12.30;94.80;;;;;;5061891;28;20032;-82
2024/03/16 06:30:13;;;;;;;10.27;1.40;;;12.30;94.80;;;;;;5052545;28;20107;-80
2024/03/16 06:32:44;;;;;;;7.43;1.60;;;12.30;94.60;;;;;;5058421;28;20110;-82
2024/03/16 06:35:11;;;;;;;6.20;1.45;;;12.20;94.30;;;;;;5057162;28;20400;-80
2024/03/16 06:37:43;;;;;;;12.05;1.55;;;12.10;94.00;;;;;;5052570;28;20485;-81
2024/03/16 06:40:09;;;;;;;8.63;1.73;;;12.10;93.80;;;;;;5066308;28;20136;-82
2024/03/16 06:42:35;;;;;;;11.82;2.00;;;12.10;94.00;;;;;;5061629;28;20044;-83
2024/03/16 06:45:00;;;;;;;10.38;1.40;;;12.00;93.80;;;;;;5063076;28;20488;-81
2024/03/16 06:47:27;;;;;;;7.38;1.63;;;12.10;94.10;;;;;;5053159;28;20025;-81
2024/03/16 06:49:52;;;;;;;11.93;2.15;;;12.00;93.80;;;;;;5062037;28;20442;-80
2024/03/16 06:52:24;;;;;;;8.48;2.33;;;12.10;93.90;;;;;;5062887;28;20045;-81
2024/03/16 06:54:51;;;;;;;11.35;1.60;;;12.10;93.90;;;;;;5061119;28;20051;-81
2024/03/16 06:57:17;;;;;;;11.82;1.70;;;12.10;94.00;;;;;;5056434;28;20029;-80
2024/03/16 06:59:42;;;;;;;16.73;2.45;;;12.10;93.80;;;;;;5063936;28;20040;-79
2024/03/16 07:02:08;;;;;;;12.23;1.80;;;12.10;93.90;;;;;;5083017;28;20092;-81
2024/03/16 07:04:34;;;;;;;7.93;1.35;;;12.00;93.90;;;;;;5076806;28;20072;-83
2024/03/16 07:06:59;;;;;;;11.00;2.58;;;12.00;94.00;;;;;;5070447;28;20469;-81
2024/03/16 07:09:25;;;;;;;8.77;1.30;;;12.00;94.00;;;;;;5067330;28;20036;-79
2024/03/16 07:11:50;;;;;;;12.02;2.03;;;12.00;94.10;;;;;;5072039;28;20033;-88
2024/03/16 07:14:17;;;;;;;5.22;2.17;;;12.00;94.10;;;;;;5055993;28;20392;-79
2024/03/16 07:16:42;;;;;;;8.70;1.40;;;12.00;94.10;;;;;;5058918;28;20040;-79
2024/03/16 07:19:08;;;;;;;4.82;1.13;;;11.90;93.40;;;;;;5055668;28;20044;-79
2024/03/16 07:21:33;;;;;;;9.23;1.48;;;12.00;93.90;;;;;;5058508;28;20173;-81
2024/03/16 07:23:59;;;;;;;8.35;1.50;;;11.90;93.60;;;;;;5059900;28;20044;-81
2024/03/16 07:26:25;;;;;;;4.90;1.35;;;11.90;93.50;;;;;;5056698;28;20033;-79
2024/03/16 07:28:51;;;;;;;4.20;0.88;;;11.90;94.20;;;;;;5059420;28;20487;-81
2024/03/16 07:31:16;;;;;;;7.45;1.30;;;11.90;93.80;;;;;;5051339;28;20388;-81
2024/03/16 07:33:44;;;;;;;6.47;1.60;;;11.90;93.80;;;;;;5059412;28;20035;-81
2024/03/16 07:36:09;;;;;;;4.05;1.13;;;11.90;93.60;;;;;;5058552;28;20064;-80
2024/03/16 07:38:35;;;;;;;9.48;1.27;;;11.90;93.70;;;;;;5060779;28;20032;-82
2024/03/16 07:41:03;;;;;;;2.67;0.93;;;11.90;93.90;;;;;;5052580;28;20123;-81
2024/03/16 07:43:29;;;;;;;12.55;1.90;;;11.90;94.10;;;;;;5063363;28;20040;-80
2024/03/16 07:45:55;;;;;;;8.27;1.17;;;11.90;93.70;;;;;;5062271;28;20123;-82
2024/03/16 07:48:22;;;;;;;5.93;1.60;;;11.90;93.50;;;;;;5063168;28;20175;-83
2024/03/16 07:50:47;;;;;;;10.43;1.95;;;11.90;93.50;;;;;;5050915;28;20033;-83
2024/03/16 07:53:13;;;;;;;14.88;1.48;;;11.80;93.60;;;;;;5053639;28;20037;-83
2024/03/16 07:55:39;;;;;;;12.45;1.67;;;11.80;93.60;;;;;;5065738;28;20036;-82
2024/03/16 07:58:04;;;;;;;11.07;1.50;;;11.90;93.80;;;;;;5058760;28;20037;-82
2024/03/16 08:00:31;;;;;;;9.35;1.60;;;11.90;94.30;;;;;;5057398;28;20035;-83
2024/03/16 08:02:57;;;;;;;10.98;1.50;;;11.90;93.80;;;;;;5061073;28;20041;-82
2024/03/16 08:05:23;;;;;;;21.35;2.30;;;12.00;94.00;;;;;;5058589;28;20438;-83
2024/03/16 08:07:49;;;;;;;15.13;1.63;;;12.00;94.00;;;;;;5055680;28;20032;-76
2024/03/16 08:10:15;;;;;;;8.38;1.60;;;12.00;94.10;;;;;;5063649;28;20087;-83
2024/03/16 08:12:41;;;;;;;6.95;1.65;;;11.90;94.30;;;;;;5062522;28;20020;-83
2024/03/16 08:15:07;;;;;;;13.00;1.83;;;11.90;94.30;;;;;;5051046;28;20032;-83
2024/03/16 08:17:33;;;;;;;9.65;1.58;;;11.90;94.30;;;;;;5069662;28;20051;-82
2024/03/16 08:19:58;;;;;;;12.70;2.28;;;11.90;94.20;;;;;;5058363;28;20508;-82
2024/03/16 08:22:24;;;;;;;7.82;1.58;;;11.90;94.30;;;;;;5054527;28;20683;-82
2024/03/16 08:24:50;;;;;;;11.57;1.80;;;11.90;94.30;;;;;;5060450;28;20059;-82
2024/03/16 08:27:17;;;;;;;12.82;2.63;;;11.90;94.00;;;;;;5052198;28;20068;-82
2024/03/16 08:29:43;;;;;;;11.82;2.10;;;12.00;94.10;;;;;;5060836;28;20078;-84
2024/03/16 08:32:15;;;;;;;4.82;1.50;;;11.90;94.20;;;;;;5061847;28;20033;-83
2024/03/16 08:34:41;;;;;;;16.50;2.30;;;11.90;94.40;;;;;;5054875;28;20076;-82
2024/03/16 08:37:07;;;;;;;6.10;1.33;;;11.90;94.60;;;;;;5057090;28;20036;-80
2024/03/16 08:39:33;;;;;;;10.90;1.75;;;11.80;94.70;;;;;;5053080;28;20041;-81
2024/03/16 08:41:58;;;;;;;23.63;1.77;;;11.80;94.80;;;;;;5066471;28;20036;-80
2024/03/16 08:44:24;;;;;;;6.63;1.45;;;11.80;94.80;;;;;;5055623;28;20109;-80
2024/03/16 08:46:50;;;;;;;10.43;1.42;;;11.70;94.90;;;;;;5063368;28;20087;-80
2024/03/16 08:49:15;;;;;;;4.18;1.50;;;11.70;95.00;;;;;;5055692;28;20858;-72
2024/03/16 08:51:41;;;;;;;13.75;1.90;;;11.70;95.10;;;;;;5065712;28;20386;-85
2024/03/16 08:54:07;;;;;;;11.45;1.65;;;11.70;94.90;;;;;;5053078;28;20025;-83
2024/03/16 08:56:32;;;;;;;10.55;2.33;;;11.80;95.10;;;;;;5055433;28;20069;-86
2024/03/16 08:58:58;;;;;;;13.88;1.95;;;11.80;95.10;;;;;;5063067;28;20137;-85
2024/03/16 09:01:24;;;;;;;3.97;1.30;;;11.80;95.10;;;;;;5061132;28;20114;-86
2024/03/16 09:03:50;;;;;;;9.65;1.85;;;11.90;94.90;;;;;;5066604;28;20421;-87
2024/03/16 09:06:17;;;;;;;12.93;1.98;;;11.90;94.70;;;;;;5056685;28;20021;-86
2024/03/16 09:08:42;;;;;;;14.23;2.25;;;11.90;94.70;;;;;;5068767;28;20115;-85
2024/03/16 09:11:09;;;;;;;6.88;1.20;;;11.90;94.30;;;;;;5064319;28;20123;-85
2024/03/16 09:13:35;;;;;;;9.00;2.08;;;11.90;94.50;;;;;;5063649;28;20111;-86
2024/03/16 09:16:05;;;;;;;7.30;1.25;;;11.90;94.30;;;;;;5061557;28;20536;-85
2024/03/16 09:18:34;;;;;;;7.50;1.55;;;12.00;94.40;;;;;;5076555;28;20032;-85
2024/03/16 09:21:00;;;;;;;7.18;1.65;;;12.00;94.60;;;;;;5074623;28;20032;-86
2024/03/16 09:23:26;;;;;;;4.53;1.13;;;12.00;94.30;;;;;;5054569;28;20044;-86
2024/03/16 09:25:56;;;;;;;2.25;0.65;;;12.00;94.40;;;;;;5053289;28;20029;-86
2024/03/16 09:28:22;;;;;;;10.93;1.50;;;12.00;94.40;;;;;;5063490;28;20036;-86
2024/03/16 09:30:48;;;;;;;7.60;1.27;;;12.00;94.50;;;;;;5056087;28;20122;-84
2024/03/16 09:33:13;;;;;;;4.45;1.33;;;12.00;94.70;;;;;;5056090;28;20056;-80
2024/03/16 09:35:39;;;;;;;13.32;1.38;;;12.10;94.60;;;;;;5058180;28;20137;-85
2024/03/16 09:38:07;;;;;;;8.93;1.02;;;12.10;94.40;;;;;;5064157;28;20119;-76
2024/03/16 09:40:33;;;;;;;13.25;1.67;;;12.20;94.60;;;;;;5056462;28;20191;-84
2024/03/16 09:43:00;;;;;;;6.90;1.30;;;12.20;94.60;;;;;;5060079;28;20025;-85
2024/03/16 09:45:28;;;;;;;7.50;1.02;;;12.20;94.60;;;;;;5056049;28;20054;-85
2024/03/16 09:47:55;;;;;;;6.07;1.40;;;12.20;94.40;;;;;;5061214;28;20028;-85
2024/03/16 09:50:28;;;;;;;5.43;1.90;;;12.20;94.60;;;;;;5061919;28;20086;-86
2024/03/16 09:52:56;;;;;;;7.60;1.08;;;12.20;94.70;;;;;;5062267;28;20036;-84
2024/03/16 09:55:25;;;;;;;4.65;1.20;;;12.30;94.80;;;;;;5053235;28;20051;-85
2024/03/16 09:57:53;;;;;;;13.75;1.50;;;12.30;94.40;;;;;;5053571;28;20032;-85
2024/03/16 10:00:21;;;;;;;10.38;1.90;;;12.30;94.40;;;;;;5057664;28;20047;-84
2024/03/16 10:02:48;;;;;;;14.70;1.73;;;12.20;94.30;;;;;;5050734;28;20033;-85
2024/03/16 10:05:17;;;;;;;16.55;2.28;;;12.30;94.30;;;;;;5052791;28;20075;-85
2024/03/16 10:07:44;;;;;;;16.25;2.28;;;12.30;94.20;;;;;;5053293;28;20029;-86
2024/03/16 10:10:15;;;;;;;7.75;1.40;;;12.30;94.10;;;;;;5066517;28;20043;-85
2024/03/16 10:12:41;;;;;;;11.18;3.42;;;12.40;94.20;;;;;;5059526;28;20488;-84
2024/03/16 10:15:19;;;;;;;9.48;1.83;;;12.40;94.00;;;;;;5054100;28;20028;-85
2024/03/16 10:17:50;;;;;;;6.80;1.13;;;12.30;94.00;;;;;;5053661;28;20390;-85
2024/03/16 10:20:16;;;;;;;9.65;2.42;;;12.30;94.40;;;;;;5066223;28;20794;-85
2024/03/16 10:22:43;;;;;;;12.68;1.65;;;12.40;94.10;;;;;;5066639;28;20395;-85
2024/03/16 10:25:09;;;;;;;8.50;1.20;;;12.30;94.10;;;;;;5054938;28;20033;-85
2024/03/16 10:27:37;;;;;;;14.77;1.63;;;12.40;94.20;;;;;;5056502;28;20059;-86
2024/03/16 10:30:07;;;;;;;8.93;1.55;;;12.40;94.10;;;;;;5064682;28;21296;-85
2024/03/16 10:32:33;;;;;;;10.02;2.28;;;12.40;93.10;;;;;;5067582;28;20264;-85
2024/03/16 10:35:04;;;;;;;8.57;1.60;;;12.40;93.40;;;;;;5051056;28;20040;-85
2024/03/16 10:37:32;;;;;;;14.27;1.92;;;12.40;93.40;;;;;;5062232;28;20508;-86
2024/03/16 10:39:59;;;;;;;11.38;1.85;;;12.50;93.60;;;;;;5065242;28;20048;-85
2024/03/16 10:42:26;;;;;;;8.43;1.70;;;12.60;94.10;;;;;;5056587;28;20024;-84
2024/03/16 10:44:53;;;;;;;16.60;2.03;;;12.50;94.10;;;;;;5060359;28;20089;-85
2024/03/16 10:47:20;;;;;;;11.50;1.90;;;12.60;94.00;;;;;;5067372;28;20044;-85
2024/03/16 10:49:49;;;;;;;10.15;1.50;;;12.50;93.70;;;;;;5059844;28;20036;-84
2024/03/16 10:52:14;;;;;;;11.50;2.08;;;12.50;94.20;;;;;;5060032;28;20037;-85
2024/03/16 10:54:40;;;;;;;8.15;1.52;;;12.60;93.90;;;;;;5060174;28;20051;-85
2024/03/16 10:57:07;;;;;;;13.57;3.03;;;12.60;93.80;;;;;;5052082;28;20029;-85
2024/03/16 10:59:41;;;;;;;8.68;2.35;;;12.50;93.60;;;;;;5056533;28;20040;-86
2024/03/16 11:02:11;;;;;;;23.10;5.40;;;12.50;93.70;;;;;;5057957;28;20036;-85
2024/03/16 11:04:50;;;;;;;5.78;1.63;;;12.60;93.70;;;;;;5063354;28;20482;-85
2024/03/16 11:07:17;;;;;;;11.00;2.15;;;12.60;93.40;;;;;;5057406;28;20033;-85
2024/03/16 11:09:44;;;;;;;9.95;2.05;;;12.60;93.60;;;;;;5056951;28;20511;-84
2024/03/16 11:12:33;;;;;;;7.43;1.60;;;12.70;93.90;;;;;;5060653;28;20024;-85
2024/03/16 11:15:33;;;;;;;7.47;1.55;;;12.70;93.70;;;;;;5047712;28;20124;-85
2024/03/16 11:18:21;;;;;;;10.60;1.92;;;12.70;93.50;;;;;;5052669;28;20114;-85
2024/03/16 11:20:50;;;;;;;9.75;1.55;;;12.70;93.40;;;;;;5064505;28;20071;-85
2024/03/16 11:23:32;;;;;;;9.30;1.65;;;12.70;93.90;;;;;;5063359;28;20400;-78
2024/03/16 11:26:19;;;;;;;14.35;2.83;;;12.80;93.30;;;;;;5054377;28;20036;-82
2024/03/16 11:28:46;;;;;;;15.27;2.40;;;12.70;93.20;;;;;;5059000;28;20115;-84
2024/03/16 11:31:33;;;;;;;4.65;1.55;;;12.80;93.90;;;;;;5057729;28;20396;-85
2024/03/16 11:34:01;;;;;;;16.38;2.10;;;12.80;94.20;;;;;;5064908;28;20072;-84
2024/03/16 11:36:29;;;;;;;18.75;2.78;;;12.80;94.10;;;;;;5065872;28;20056;-83
2024/03/16 11:38:55;;;;;;;15.80;3.03;;;12.90;94.10;;;;;;5061194;28;20044;-84
2024/03/16 11:41:21;;;;;;;12.35;2.03;;;12.90;94.10;;;;;;5055507;28;20041;-85
2024/03/16 11:43:51;;;;;;;9.23;1.88;;;12.90;94.20;;;;;;5054387;28;20039;-84
2024/03/16 11:46:19;;;;;;;12.38;2.42;;;12.90;93.90;;;;;;5063912;28;20111;-84
2024/03/16 11:48:45;;;;;;;5.13;1.60;;;12.90;93.90;;;;;;5063331;28;20037;-85
2024/03/16 11:51:13;;;;;;;10.75;2.42;;;13.00;93.90;;;;;;5053112;28;20035;-85
2024/03/16 11:53:39;;;;;;;8.93;1.80;;;13.00;93.80;;;;;;5062273;28;20028;-86
2024/03/16 11:56:11;;;;;;;9.65;1.55;;;13.00;93.70;;;;;;5060800;28;20040;-85
2024/03/16 11:58:40;;;;;;;10.00;1.48;;;13.10;93.80;;;;;;5059303;28;20130;-84
2024/03/16 12:01:18;;;;;;;11.73;1.63;;;13.10;94.00;;;;;;5056388;28;20069;-87
2024/03/16 12:03:48;;;;;;;7.22;0.95;;;13.10;94.10;;;;;;5059824;28;20046;-85
2024/03/16 12:06:14;;;;;;;14.30;1.95;;;13.10;93.90;;;;;;5055896;28;20103;-83
2024/03/16 12:08:40;;;;;;;10.90;2.30;;;13.10;94.00;;;;;;5058506;28;20036;-87
2024/03/16 12:11:08;;;;;;;13.52;2.00;;;13.20;94.20;;;;;;5052451;28;20370;-86
2024/03/16 12:13:40;;;;;;;14.00;2.17;;;13.20;93.70;;;;;;5054403;28;20033;-85
2024/03/16 12:16:08;;;;;;;9.60;1.85;;;13.20;93.80;;;;;;5052295;28;20171;-84
2024/03/16 12:18:34;;;;;;;9.63;2.03;;;13.30;93.70;;;;;;5056673;28;20056;-85
2024/03/16 12:21:03;;;;;;;8.00;1.92;;;13.40;93.40;;;;;;5055436;28;20469;-84
2024/03/16 12:23:28;;;;;;;11.32;2.38;;;13.30;93.50;;;;;;5053918;28;20032;-85
2024/03/16 12:25:56;;;;;;;4.03;1.10;;;13.40;94.20;;;;;;5056344;28;20037;-85
2024/03/16 12:28:22;;;;;;;11.38;1.67;;;13.40;94.30;;;;;;5057920;28;20040;-86
2024/03/16 12:30:48;;;;;;;5.10;1.17;;;13.50;94.10;;;;;;5063975;28;20530;-84
2024/03/16 12:33:14;;;;;;;21.67;3.28;;;13.50;94.60;;;;;;5058576;28;20083;-84
2024/03/16 12:35:40;;;;;;;12.52;2.10;;;13.50;93.70;;;;;;5053484;28;20048;-85
2024/03/16 12:38:14;;;;;;;15.45;2.42;;;13.50;94.30;;;;;;5062508;28;20570;-85
2024/03/16 12:40:40;;;;;;;17.50;2.00;;;13.60;94.20;;;;;;5067864;28;20032;-84
2024/03/16 12:43:08;;;;;;;11.60;1.67;;;13.70;93.50;;;;;;5065493;28;20445;-84
2024/03/16 12:45:34;;;;;;;11.02;2.33;;;13.70;94.40;;;;;;5066865;28;20036;-84